Latest Weather Observations for Grafton Airport

IDN60801

Issued at 12:35 pm EST Wednesday 30 July 2014 (issued every 30 minutes, with the page automatically refreshed every 10 minutes)

About weather observations | Map of weather stations | Latest weather observations for NSW | Other Formats
Station Details ID: 058161 Name: GRAFTON AIRPORT AWS Lat: -29.76 Lon: 153.03 Height: 25.09 m
Data from the previous 72 hours. | See also: Recent months for locations in New South Wales
Date/Time
EST
Temp
°C
App
Temp
°C
Dew
Point
Rel
Hum
%
Delta-T
°C
Wind Press
QNH
hPa
Press
MSL
hPa
Rain
since 9 am
mm
Dir
 
Spd
km/h
Gust
km/h
Spd
kts
Gust
kts
30/12:30pm 22.9 20.6 0.1 22 10.3 W 2 7 1 4 1019.6 - 0.0
30/12:00pm 22.3 20.1 3.4 29 9.1 SSE 4 7 2 4 1020.1 1020.1 0.0
30/11:30am 21.0 18.9 3.7 32 8.3 ESE 4 9 2 5 1020.7 - 0.0
30/11:00am 19.1 16.5 4.1 37 7.1 W 7 11 4 6 1021.5 1021.5 0.0
30/10:30am 17.2 15.0 5.2 45 5.7 S 6 11 3 6 1021.9 - 0.0
30/10:00am 15.4 14.0 5.3 51 4.8 WNW 2 7 1 4 1022.2 1022.2 0.0
30/09:30am 13.1 10.8 4.8 57 3.8 N 6 9 3 5 1022.5 - 0.0
30/09:00am 10.7 8.8 6.8 77 1.8 NNE 6 7 3 4 1022.8 1022.8 0.0
30/08:30am 8.2 7.0 6.5 89 0.8 WSW 2 7 1 4 1022.6 - 0.0
30/08:23am 7.1 6.1 5.7 91 0.6 CALM 0 6 0 3 1022.6 - 0.0
30/08:00am 5.2 4.0 4.6 96 0.3 CALM 0 0 0 0 1022.5 1022.5 0.0
30/07:30am 2.3 0.6 1.9 97 0.2 CALM 0 0 0 0 1022.3 - 0.0
30/07:00am 1.2 -0.7 0.8 97 0.1 CALM 0 0 0 0 1022.1 1022.1 0.0
30/06:30am 0.7 -1.3 0.1 96 0.2 CALM 0 0 0 0 1022.0 - 0.0
30/06:00am 0.9 -1.0 0.3 96 0.2 WSW 0 0 0 0 1021.3 1021.3 0.0
30/05:30am 0.6 -1.8 -0.3 94 0.3 WSW 2 7 1 4 1021.1 - 0.0
30/05:00am 1.6 -0.2 0.9 95 0.3 CALM 0 0 0 0 1020.7 1020.7 0.0
30/04:30am 2.4 -0.4 2.0 97 0.2 S 6 9 3 5 1020.4 - 0.0
30/04:00am 2.8 0.5 2.5 98 0.1 ESE 4 7 2 4 1020.5 1020.5 0.0
30/03:30am 2.5 0.8 1.9 96 0.2 CALM 0 0 0 0 1020.7 - 0.0
30/03:00am 2.0 0.2 1.3 95 0.3 SW 0 0 0 0 1020.7 1020.7 0.0
30/02:30am 3.0 1.4 2.6 97 0.2 CALM 0 0 0 0 1020.7 - 0.0
30/02:00am 3.6 1.0 3.2 97 0.2 S 6 9 3 5 1020.8 1020.8 0.0
30/01:30am 3.7 1.5 3.3 97 0.2 S 4 6 2 3 1020.9 - 0.0
30/01:10am 3.9 2.5 3.3 96 0.2 CALM 0 0 0 0 1020.9 - 0.0
30/01:03am 3.9 2.4 3.2 95 0.3 CALM 0 0 0 0 1020.9 - 0.0
30/01:00am 4.0 2.6 3.3 95 0.3 CALM 0 0 0 0 1020.9 1020.9 0.0
30/12:30am 4.5 3.1 3.8 95 0.3 CALM 0 6 0 3 1021.0 - 0.0
30/12:16am 4.1 2.2 2.8 91 0.5 WSW 2 7 1 4 1021.0 - 0.0
30/12:00am 5.5 3.0 4.8 95 0.3 SSE 7 9 4 5 1021.0 1021.0 0.0
 
Date/Time
EST
Temp
°C
App
Temp
°C
Dew
Point
Rel
Hum
%
Delta-T
°C
Wind Press
QNH
hPa
Press
MSL
hPa
Rain
since 9 am
mm
Dir
 
Spd
km/h
Gust
km/h
Spd
kts
Gust
kts
29/11:57pm 5.4 2.9 4.7 95 0.3 SSE 7 7 4 4 1021.0 - 0.0
29/11:30pm 5.0 3.6 3.3 89 0.7 CALM 0 6 0 3 1021.0 - 0.0
29/11:27pm 5.2 3.4 3.7 90 0.6 SSW 2 6 1 3 1020.9 - 0.0
29/11:00pm 5.9 4.0 4.9 93 0.4 WSW 4 7 2 4 1021.1 1021.1 0.0
29/10:30pm 6.8 4.7 5.9 94 0.4 SSW 6 9 3 5 1021.2 - 0.0
29/10:00pm 6.9 5.5 5.5 91 0.6 SSW 2 9 1 5 1021.2 1021.2 0.0
29/09:30pm 6.8 3.9 4.8 87 0.9 S 9 11 5 6 1021.1 - 0.0
29/09:00pm 7.7 5.4 5.5 86 1.0 SW 7 11 4 6 1020.9 1020.9 0.0
29/08:30pm 8.7 7.3 5.6 81 1.4 S 2 7 1 4 1020.4 - 0.0
29/08:00pm 9.7 8.3 5.5 75 1.9 SSW 2 7 1 4 1020.1 1020.1 0.0
29/07:30pm 9.8 8.6 4.6 70 2.3 CALM 0 0 0 0 1019.7 - 0.0
29/07:00pm 11.1 8.4 5.4 68 2.6 S 9 13 5 7 1019.8 1019.8 0.0
29/06:30pm 14.0 11.8 5.1 55 4.2 E 6 9 3 5 1019.4 - 0.0
29/06:00pm 15.7 13.8 5.0 49 5.0 E 4 7 2 4 1019.0 1019.0 0.0
29/05:30pm 15.9 12.8 3.4 43 5.7 NE 9 13 5 7 1018.5 - 0.0
29/05:00pm 18.0 14.2 1.9 34 7.3 NE 11 15 6 8 1018.0 1018.0 0.0
29/04:30pm 19.9 14.6 1.8 30 8.3 NNE 19 20 10 11 1018.0 - 0.0
29/04:00pm 21.4 17.1 1.1 26 9.3 N 13 19 7 10 1017.9 1017.9 0.0
29/03:30pm 21.6 17.5 2.3 28 9.0 NE 13 19 7 10 1018.0 - 0.0
29/03:00pm 21.5 18.0 1.2 26 9.3 ENE 9 15 5 8 1018.2 1018.2 0.0
29/02:30pm 22.0 19.4 3.2 29 9.0 E 6 15 3 8 1018.5 - 0.0
29/02:00pm 21.7 19.2 1.4 26 9.3 NW 4 9 2 5 1018.9 1018.9 0.0
29/01:30pm 21.1 18.5 0.9 26 9.2 ENE 4 7 2 4 1019.3 - 0.0
29/01:00pm 20.6 17.6 2.0 29 8.6 N 7 13 4 7 1019.7 1019.7 0.0
29/12:30pm 19.7 16.5 0.7 28 8.5 ENE 7 15 4 8 1020.3 - 0.0
29/12:00pm 19.9 17.2 2.7 32 8.0 N 6 11 3 6 1020.8 1020.8 0.0
29/11:30am 18.8 16.2 3.0 35 7.3 NNE 6 9 3 5 1021.4 - 0.0
29/11:00am 17.6 15.7 4.9 43 6.1 SW 4 9 2 5 1022.1 1022.1 0.0
29/10:30am 15.8 14.1 5.7 51 4.8 E 4 7 2 4 1022.4 - 0.0
29/10:00am 13.9 11.6 5.0 55 4.1 NE 6 9 3 5 1022.6 1022.6 0.0
29/09:30am 11.9 9.7 5.3 64 3.0 N 6 9 3 5 1022.9 - 0.0
29/09:00am 9.6 8.6 5.6 76 1.8 CALM 0 0 0 0 1022.9 1022.9 0.0
29/08:30am 7.8 7.0 6.6 92 0.6 CALM 0 0 0 0 1022.7 - 0.0
29/08:00am 4.3 2.9 3.6 95 0.3 CALM 0 0 0 0 1022.4 1022.4 0.0
29/07:30am 1.8 0.0 1.2 96 0.2 CALM 0 0 0 0 1022.3 - 0.0
29/07:00am 0.7 -1.3 0.1 96 0.2 CALM 0 0 0 0 1022.1 1022.1 0.0
29/06:30am 0.8 -1.2 0.2 96 0.2 CALM 0 0 0 0 1021.7 - 0.0
29/06:00am 1.2 -0.7 0.5 95 0.3 CALM 0 0 0 0 1021.2 1021.2 0.0
29/05:30am 2.0 0.3 1.7 98 0.1 CALM 0 0 0 0 1020.8 - 0.0
29/05:00am 1.4 -1.2 1.0 97 0.1 S 4 7 2 4 1020.6 1020.6 0.0
29/04:48am 1.7 -0.1 1.0 95 0.3 CALM 0 7 0 4 1020.4 - 0.0
29/04:30am 1.4 -0.5 0.4 93 0.4 CALM 0 0 0 0 1020.4 - 0.0
29/04:28am 1.4 -0.5 0.4 93 0.4 CALM 0 0 0 0 1020.4 - 0.0
29/04:00am 3.0 1.4 2.6 97 0.2 CALM 0 0 0 0 1020.1 1020.1 0.0
29/03:33am 3.0 1.4 2.7 98 0.1 CALM 0 0 0 0 1020.0 - 0.0
29/03:30am 3.0 1.4 2.7 98 0.1 CALM 0 0 0 0 1020.0 - 0.0
29/03:00am 2.4 0.6 1.5 94 0.3 CALM 0 0 0 0 1020.0 1020.0 0.0
29/02:37am 3.1 1.5 2.4 95 0.3 CALM 0 0 0 0 1020.0 - 0.0
29/02:30am 3.0 1.3 2.0 93 0.4 CALM 0 0 0 0 1020.0 - 0.0
29/02:00am 4.5 1.8 3.5 93 0.4 S 7 9 4 5 1020.1 1020.1 0.0
29/01:30am 5.1 2.2 4.8 98 0.1 S 9 11 5 6 1020.1 - 0.0
29/01:00am 4.5 1.5 4.1 97 0.2 S 9 11 5 6 1020.3 1020.3 0.0
29/12:30am 5.2 2.7 4.8 97 0.2 S 7 9 4 5 1020.4 - 0.0
29/12:00am 5.8 4.7 5.1 95 0.3 CALM 0 0 0 0 1020.5 1020.5 0.0
 
Date/Time
EST
Temp
°C
App
Temp
°C
Dew
Point
Rel
Hum
%
Delta-T
°C
Wind Press
QNH
hPa
Press
MSL
hPa
Rain
since 9 am
mm
Dir
 
Spd
km/h
Gust
km/h
Spd
kts
Gust
kts
28/11:30pm 5.7 4.5 4.7 93 0.4 CALM 0 6 0 3 1020.7 - 0.0
28/11:00pm 6.3 3.9 5.3 93 0.4 S 7 9 4 5 1020.7 1020.7 0.0
28/10:30pm 6.5 5.1 5.3 92 0.5 SSW 2 9 1 5 1020.8 - 0.0
28/10:00pm 8.2 7.1 5.3 82 1.3 CALM 0 0 0 0 1020.8 1020.8 0.0
28/09:30pm 9.6 8.9 6.9 83 1.3 CALM 0 6 0 3 1020.7 - 0.0
28/09:00pm 10.3 8.3 6.3 76 1.9 NE 6 9 3 5 1020.7 1020.7 0.0
28/08:30pm 10.8 10.0 6.6 75 2.0 CALM 0 0 0 0 1020.8 - 0.0
28/08:00pm 11.6 10.7 6.1 69 2.6 CALM 0 0 0 0 1020.5 1020.5 0.0
28/07:30pm 12.1 10.9 4.6 60 3.4 CALM 0 0 0 0 1020.5 - 0.0
28/07:00pm 12.9 10.5 4.1 55 4.0 NE 6 7 3 4 1020.1 1020.1 0.0
28/06:30pm 14.5 13.2 4.2 50 4.7 CALM 0 0 0 0 1019.7 - 0.0
28/06:00pm 14.8 13.5 3.9 48 5.0 CALM 0 0 0 0 1019.4 1019.4 0.0
28/05:30pm 16.5 13.5 3.9 43 5.9 NE 9 11 5 6 1019.3 - 0.0
28/05:00pm 16.8 13.1 4.2 43 5.9 N 13 15 7 8 1019.1 1019.1 0.0
28/04:30pm 20.3 16.4 3.5 33 8.0 N 13 17 7 9 1019.1 - 0.0
28/04:00pm 21.3 17.4 3.5 31 8.5 N 13 17 7 9 1019.0 1019.0 0.0
28/03:30pm 21.6 17.6 2.8 29 8.9 N 13 20 7 11 1019.0 - 0.0
28/03:00pm 21.7 17.4 3.4 30 8.7 N 15 26 8 14 1019.0 1019.0 0.0
28/02:30pm 21.4 17.4 3.1 30 8.7 NNW 13 22 7 12 1019.3 - 0.0
28/02:00pm 21.6 17.3 3.3 30 8.7 N 15 32 8 17 1019.5 1019.5 0.0
28/01:30pm 21.3 16.7 3.5 31 8.5 NNW 17 30 9 16 1019.7 - 0.0
28/01:00pm 21.3 16.8 4.4 33 8.2 NNW 17 26 9 14 1020.0 1020.0 0.0
28/12:30pm 20.4 16.7 4.4 35 7.7 N 13 24 7 13 1020.7 - 0.0
28/12:00pm 19.9 16.6 6.6 42 6.7 N 13 19 7 10 1021.5 1021.5 0.0
28/11:30am 19.1 16.1 7.5 47 5.9 N 13 28 7 15 1022.3 - 0.0
28/11:00am 18.3 16.0 7.4 49 5.5 NNW 9 17 5 9 1023.0 1023.0 0.0
28/10:30am 16.7 15.0 7.4 54 4.7 WSW 6 11 3 6 1023.8 - 0.0
28/10:00am 14.4 13.0 7.2 62 3.5 NW 4 11 2 6 1024.0 1024.0 0.0
28/09:30am 12.5 11.0 7.0 69 2.6 NNE 4 7 2 4 1023.9 - 0.0
28/09:00am 10.3 8.3 6.3 76 1.9 S 6 7 3 4 1024.0 1024.0 0.0
28/08:30am 8.7 8.0 6.8 88 0.9 CALM 0 0 0 0 1023.9 - 0.0
28/08:00am 6.2 5.2 5.8 97 0.2 CALM 0 0 0 0 1023.9 1023.9 0.0
28/07:30am 4.0 2.6 3.7 98 0.1 CALM 0 0 0 0 1023.6 - 0.0
28/07:00am 2.7 0.0 2.4 98 0.1 S 6 7 3 4 1023.4 1023.4 0.0
28/06:30am 2.4 0.7 1.8 96 0.2 CALM 0 0 0 0 1023.2 - 0.0
28/06:00am 2.7 -0.6 2.4 98 0.1 S 9 9 5 5 1023.1 1023.1 0.0
28/05:51am 2.5 -0.5 2.1 97 0.2 S 7 9 4 5 1023.0 - 0.0
28/05:30am 2.8 1.2 2.5 98 0.1 CALM 0 0 0 0 1022.7 - 0.0
28/05:00am 3.2 0.5 2.9 98 0.1 ENE 6 7 3 4 1022.4 1022.4 0.0
28/04:30am 3.2 0.9 2.8 97 0.2 SW 4 7 2 4 1022.8 - 0.0
28/04:28am 3.2 0.9 2.8 97 0.2 SW 4 7 2 4 1022.8 - 0.0
28/04:24am 3.2 0.9 2.6 96 0.2 SW 4 6 2 3 1022.8 - 0.0
28/04:00am 3.4 1.1 2.7 95 0.3 SSW 4 7 2 4 1022.8 1022.8 0.0
28/03:52am 4.1 2.7 3.5 96 0.2 CALM 0 0 0 0 1022.7 - 0.0
28/03:37am 4.6 3.3 4.3 98 0.1 CALM 0 0 0 0 1022.7 - 0.0
28/03:30am 5.1 4.0 5.0 99 0.0 CALM 0 0 0 0 1022.7 - 0.0
28/03:00am 4.9 3.7 4.6 98 0.1 CALM 0 0 0 0 1023.0 1023.0 0.0
28/02:38am 4.5 3.1 3.8 95 0.3 CALM 0 0 0 0 1023.2 - 0.0
28/02:30am 4.9 3.6 4.3 96 0.3 CALM 0 0 0 0 1023.2 - 0.0
28/02:03am 4.8 2.7 4.1 95 0.3 SSW 4 7 2 4 1023.4 - 0.0
28/02:00am 4.8 3.1 4.1 95 0.3 SSW 2 7 1 4 1023.3 1023.3 0.0
28/01:33am 5.3 4.1 4.7 96 0.3 CALM 0 0 0 0 1023.4 - 0.0
28/01:30am 5.6 4.5 5.2 97 0.2 CALM 0 0 0 0 1023.5 - 0.0
28/01:28am 5.7 4.6 5.3 97 0.2 CALM 0 0 0 0 1023.5 - 0.0
28/01:00am 5.1 3.8 3.9 92 0.5 CALM 0 0 0 0 1023.6 1023.6 0.0
28/12:55am 5.3 4.0 4.3 93 0.4 CALM 0 0 0 0 1023.6 - 0.0
28/12:30am 5.8 4.7 4.9 94 0.4 CALM 0 0 0 0 1023.7 - 0.0
28/12:00am 6.6 5.6 5.7 94 0.4 CALM 0 0 0 0 1023.8 1023.8 0.0
 
Date/Time
EST
Temp
°C
App
Temp
°C
Dew
Point
Rel
Hum
%
Delta-T
°C
Wind Press
QNH
hPa
Press
MSL
hPa
Rain
since 9 am
mm
Dir
 
Spd
km/h
Gust
km/h
Spd
kts
Gust
kts
27/11:30pm 6.6 4.5 5.9 95 0.3 SSW 6 9 3 5 1023.9 - 0.0
27/11:00pm 6.8 4.5 5.7 93 0.5 S 7 9 4 5 1024.0 1024.0 0.0
27/10:30pm 8.0 5.8 6.3 89 0.8 S 7 9 4 5 1024.0 - 0.0
27/10:00pm 7.5 5.4 6.0 90 0.7 S 6 9 3 5 1024.2 1024.2 0.0
27/09:30pm 8.2 7.0 6.3 88 0.9 S 2 7 1 4 1024.3 - 0.0
27/09:00pm 8.2 6.0 6.2 87 0.9 SSW 7 9 4 5 1024.2 1024.2 0.0
27/08:30pm 8.9 7.0 6.9 87 0.9 SSW 6 11 3 6 1024.2 - 0.0
27/08:00pm 9.8 9.1 6.9 82 1.4 CALM 0 0 0 0 1024.0 1024.0 0.0
27/07:30pm 11.5 10.8 7.0 74 2.2 CALM 0 0 0 0 1023.5 - 0.0
27/07:00pm 11.6 10.8 6.5 71 2.4 CALM 0 0 0 0 1023.4 1023.4 0.0
27/06:30pm 13.2 12.1 6.8 65 3.1 NNE 2 6 1 3 1023.2 - 0.0
27/06:00pm 15.0 13.1 6.6 57 4.1 SE 6 9 3 5 1022.8 1022.8 0.0
27/05:30pm 16.1 13.3 6.8 54 4.6 SE 11 15 6 8 1022.3 - 0.0
27/05:00pm 17.1 14.2 6.6 50 5.2 ESE 11 20 6 11 1021.9 1021.9 0.0
27/04:30pm 18.7 15.7 6.2 44 6.2 ESE 11 17 6 9 1021.6 - 0.0
27/04:00pm 19.6 16.2 6.0 41 6.7 ESE 13 17 7 9 1021.4 1021.4 0.0
27/03:30pm 20.3 16.5 5.9 39 7.2 E 15 20 8 11 1021.1 - 0.0
27/03:00pm 20.6 16.5 4.6 35 7.8 E 15 20 8 11 1020.9 1020.9 0.0
27/02:30pm 21.0 17.3 4.6 34 8.0 E 13 20 7 11 1021.0 - 0.0
27/02:00pm 21.7 19.0 2.9 29 8.9 NNE 6 11 3 6 1021.1 1021.1 0.0
27/01:30pm 21.6 18.6 4.2 32 8.5 E 9 13 5 7 1021.2 - 0.0
27/01:00pm 20.8 18.7 4.0 33 8.1 NE 4 9 2 5 1021.6 1021.6 0.0

Other Formats:

Comma delimited format used in spreadsheet applications
http://www.bom.gov.au/fwo/IDN60801/IDN60801.95570.axf

JavaScript Object Notation format (JSON) in row-major order
http://www.bom.gov.au/fwo/IDN60801/IDN60801.95570.json